Terminal Aerodrome Forecast
Issued by NWS

Home | Current Version | Previous Version | Graphics & Text | Print | Product List | Glossary On
Versions: 1 2 3 4 5 6 7 8 9 10 11 12 13 14 15 16 17 18 19 20 21 22
000
FTUS43 KMPX 181446 AAA
TAFAXN
TAF AMD
KAXN 181446Z 1815/1912 11012G20KT P6SM BKN200
     FM190000 11011KT P6SM OVC080
     FM190300 11012KT 6SM -RA OVC040
     FM190600 11015KT 4SM RA BR SCT008 OVC017=

USA.gov is the U.S. government's official web portal to all federal, state and local government web resources and services.